createdAt,value
2023-08-11T00:01:28.072Z,79.80
2023-08-11T00:04:01.008Z,79.90
2023-08-11T00:06:38.265Z,79.80
2023-08-11T00:09:12.343Z,79.80
2023-08-11T00:11:45.694Z,80.00
2023-08-11T00:14:18.983Z,80.20
2023-08-11T00:16:51.972Z,80.00
2023-08-11T00:19:24.946Z,79.90
2023-08-11T00:21:58.493Z,80.20
2023-08-11T00:24:31.479Z,80.40
2023-08-11T00:27:05.403Z,80.40
2023-08-11T00:29:38.741Z,80.20
2023-08-11T00:32:12.072Z,79.90
2023-08-11T00:34:44.998Z,80.00
2023-08-11T00:37:17.911Z,80.20
2023-08-11T00:39:52.685Z,80.20
2023-08-11T00:42:26.456Z,80.30
2023-08-11T00:45:00.426Z,80.30
2023-08-11T00:47:34.937Z,80.40
2023-08-11T00:50:08.840Z,80.40
2023-08-11T00:52:42.076Z,80.30
2023-08-11T00:55:15.914Z,81.60
2023-08-11T00:57:48.984Z,81.70
2023-08-11T01:00:22.745Z,81.70
2023-08-11T01:02:57.233Z,82.10
2023-08-11T01:05:34.853Z,82.00
2023-08-11T01:08:21.741Z,82.20
2023-08-11T01:11:09.327Z,82.10
2023-08-11T01:13:49.238Z,82.20
2023-08-11T01:16:25.224Z,82.30
2023-08-11T01:18:59.488Z,82.20
2023-08-11T01:21:36.531Z,82.10
2023-08-11T01:24:09.863Z,82.00
2023-08-11T01:26:42.841Z,82.20
2023-08-11T01:29:15.859Z,81.90
2023-08-11T01:31:48.754Z,82.40
2023-08-11T01:34:22.403Z,82.20
2023-08-11T01:37:00.834Z,82.30
2023-08-11T01:39:34.783Z,82.00
2023-08-11T01:42:07.799Z,82.40
2023-08-11T01:44:40.950Z,82.30
2023-08-11T01:47:14.026Z,82.20
2023-08-11T01:49:48.164Z,82.30
2023-08-11T01:52:22.151Z,82.30
2023-08-11T01:54:55.083Z,82.20
2023-08-11T01:57:28.141Z,82.40
2023-08-11T02:00:01.103Z,82.50
2023-08-11T02:02:46.945Z,82.40
2023-08-11T02:05:19.966Z,83.10
2023-08-11T02:07:54.346Z,83.00
2023-08-11T02:10:27.566Z,83.20
2023-08-11T02:13:01.863Z,83.30
2023-08-11T02:15:35.548Z,83.40
2023-08-11T02:18:10.051Z,82.90
2023-08-11T02:20:43.642Z,82.80
2023-08-11T02:23:16.554Z,82.70
2023-08-11T02:25:49.431Z,82.80
2023-08-11T02:28:22.614Z,82.80
2023-08-11T02:30:57.001Z,83.70
2023-08-11T02:33:29.876Z,83.20
2023-08-11T02:36:04.035Z,83.00
2023-08-11T02:38:36.924Z,82.70
2023-08-11T02:41:09.840Z,82.60
2023-08-11T02:43:42.913Z,82.80
2023-08-11T02:46:15.794Z,83.00
2023-08-11T02:48:49.072Z,83.20
2023-08-11T02:51:23.014Z,83.00
2023-08-11T02:53:55.979Z,83.30
2023-08-11T02:56:29.412Z,82.90
2023-08-11T02:59:03.089Z,82.80
2023-08-11T03:01:36.032Z,82.80
2023-08-11T03:04:09.368Z,83.10
2023-08-11T03:06:43.689Z,83.00
2023-08-11T03:09:16.728Z,83.20
2023-08-11T03:11:49.651Z,83.60
2023-08-11T03:14:22.638Z,83.60
2023-08-11T03:16:56.574Z,84.10
2023-08-11T03:19:29.594Z,84.20
2023-08-11T03:22:03.226Z,83.80
2023-08-11T03:24:37.177Z,83.20
2023-08-11T03:27:10.561Z,83.00
2023-08-11T03:29:43.870Z,83.30
2023-08-11T03:32:16.942Z,83.70
2023-08-11T03:34:50.414Z,83.80
2023-08-11T03:37:23.534Z,83.80
2023-08-11T03:39:56.447Z,84.10
2023-08-11T03:42:29.402Z,84.80
2023-08-11T03:45:05.759Z,84.80
2023-08-11T03:47:41.179Z,85.00
2023-08-11T03:50:16.399Z,85.00
2023-08-11T03:52:49.752Z,84.90
2023-08-11T03:55:23.598Z,84.70
2023-08-11T03:57:58.173Z,84.50
2023-08-11T04:00:33.786Z,84.30
2023-08-11T04:03:14.163Z,84.20
2023-08-11T04:05:47.072Z,83.90
2023-08-11T04:08:20.738Z,83.90
2023-08-11T04:10:56.751Z,83.50
2023-08-11T04:13:29.878Z,83.40
2023-08-11T04:16:05.309Z,83.60
2023-08-11T04:18:38.509Z,84.20
2023-08-11T04:21:11.702Z,84.30
2023-08-11T04:23:44.632Z,84.60
2023-08-11T04:26:19.083Z,84.60
2023-08-11T04:28:52.823Z,84.70
2023-08-11T04:31:26.146Z,85.10
2023-08-11T04:33:59.040Z,84.90
2023-08-11T04:36:32.425Z,84.90
2023-08-11T04:39:06.952Z,84.80
2023-08-11T04:41:40.694Z,84.60
2023-08-11T04:44:15.466Z,84.40
2023-08-11T04:46:48.369Z,84.60
2023-08-11T04:49:21.675Z,84.40
2023-08-11T04:51:54.597Z,84.50
2023-08-11T04:54:27.655Z,84.30
2023-08-11T04:57:02.024Z,84.20
2023-08-11T04:59:35.416Z,84.10
2023-08-11T05:02:08.850Z,84.20
2023-08-11T05:04:44.699Z,84.10
2023-08-11T05:07:17.703Z,84.40
2023-08-11T05:09:51.021Z,84.20
2023-08-11T05:12:23.950Z,84.40
2023-08-11T05:14:56.974Z,84.30
2023-08-11T05:17:30.069Z,84.40
2023-08-11T05:20:07.746Z,83.00
2023-08-11T05:22:40.988Z,83.30
2023-08-11T05:25:13.928Z,83.20
2023-08-11T05:27:46.766Z,83.60
2023-08-11T05:30:20.157Z,83.50
2023-08-11T05:32:53.839Z,83.40
2023-08-11T05:35:27.696Z,83.30
2023-08-11T05:38:02.922Z,83.30
2023-08-11T05:40:35.895Z,83.30
2023-08-11T05:43:09.075Z,83.20
2023-08-11T05:45:42.352Z,83.20
2023-08-11T05:48:15.439Z,82.90
2023-08-11T05:50:48.741Z,82.70
2023-08-11T05:53:21.617Z,82.50
2023-08-11T05:55:54.711Z,82.30
2023-08-11T05:58:27.762Z,82.10
2023-08-11T06:01:04.205Z,82.10
2023-08-11T06:03:37.204Z,82.20
2023-08-11T06:06:10.223Z,81.90
2023-08-11T06:08:43.125Z,81.90
2023-08-11T06:11:16.002Z,81.90
2023-08-11T06:13:48.886Z,81.40
2023-08-11T06:16:21.805Z,80.40
2023-08-11T06:18:54.899Z,80.40
2023-08-11T06:21:28.690Z,80.10
2023-08-11T06:24:03.542Z,79.90
2023-08-11T06:26:36.765Z,79.80
2023-08-11T06:29:09.872Z,79.50
2023-08-11T06:31:44.086Z,79.40
2023-08-11T06:34:18.945Z,79.40
2023-08-11T06:36:51.803Z,78.80
2023-08-11T06:39:24.683Z,78.40
2023-08-11T06:41:57.981Z,78.60
2023-08-11T06:44:50.870Z,78.30
2023-08-11T06:47:24.910Z,78.10
2023-08-11T06:49:57.867Z,78.10
2023-08-11T06:52:31.240Z,77.90
2023-08-11T06:55:06.888Z,77.80
2023-08-11T06:57:39.867Z,77.80
2023-08-11T07:00:13.307Z,77.80
2023-08-11T07:02:46.415Z,77.60
2023-08-11T07:05:19.427Z,77.30
2023-08-11T07:07:52.529Z,77.80
2023-08-11T07:10:25.387Z,77.40
2023-08-11T07:12:58.874Z,76.30
2023-08-11T07:15:33.237Z,75.70
2023-08-11T07:18:06.671Z,74.70
2023-08-11T07:20:43.929Z,74.40
2023-08-11T07:23:17.438Z,74.30
2023-08-11T07:25:50.385Z,73.20
2023-08-11T07:28:23.252Z,72.90
2023-08-11T07:30:56.389Z,72.40
2023-08-11T07:33:30.840Z,72.40
2023-08-11T07:36:03.817Z,71.50
2023-08-11T07:38:36.806Z,70.80
2023-08-11T07:41:09.911Z,69.20
2023-08-11T07:43:42.960Z,68.10
2023-08-11T07:46:15.919Z,67.50
2023-08-11T07:48:49.854Z,65.80
2023-08-11T07:51:22.906Z,64.80
2023-08-11T07:53:56.009Z,64.50
2023-08-11T07:56:29.672Z,61.80
2023-08-11T07:59:03.239Z,60.60
2023-08-11T08:01:37.743Z,57.50
2023-08-11T08:04:11.825Z,54.70
2023-08-11T08:06:46.695Z,55.20
2023-08-11T08:09:20.510Z,54.90
2023-08-11T08:11:53.954Z,54.40
2023-08-11T08:14:26.852Z,53.20
2023-08-11T08:17:09.015Z,51.70
2023-08-11T08:19:42.011Z,51.80
2023-08-11T08:22:14.991Z,50.10
2023-08-11T08:24:49.338Z,50.10
2023-08-11T08:27:25.350Z,50.00
2023-08-11T08:29:58.282Z,49.60
2023-08-11T08:32:31.302Z,49.60
2023-08-11T08:35:04.492Z,49.00
2023-08-11T08:37:37.848Z,45.20
2023-08-11T08:40:11.453Z,47.70
2023-08-11T08:42:45.303Z,47.30
2023-08-11T08:45:18.882Z,48.10
2023-08-11T08:47:54.110Z,47.50
2023-08-11T08:50:27.639Z,47.40
2023-08-11T08:53:02.471Z,46.80
2023-08-11T08:55:35.766Z,46.90
2023-08-11T08:58:10.727Z,47.50
2023-08-11T09:00:44.539Z,47.60
2023-08-11T09:03:18.001Z,46.10
2023-08-11T09:05:51.537Z,46.00
2023-08-11T09:08:25.234Z,46.10
2023-08-11T09:10:59.045Z,47.00
2023-08-11T09:13:33.845Z,46.10
2023-08-11T09:16:07.325Z,46.30
2023-08-11T09:18:40.678Z,45.30
2023-08-11T09:21:15.174Z,45.70
2023-08-11T09:23:48.202Z,44.90
2023-08-11T09:26:23.081Z,44.20
2023-08-11T09:28:57.062Z,43.50
2023-08-11T09:31:35.073Z,43.80
2023-08-11T09:34:18.840Z,42.50
2023-08-11T09:36:52.116Z,43.00
2023-08-11T09:39:25.385Z,43.80
2023-08-11T09:41:58.557Z,43.40
2023-08-11T09:44:31.803Z,43.10
2023-08-11T09:47:15.448Z,41.10
2023-08-11T09:49:50.902Z,43.00
2023-08-11T09:52:24.268Z,42.60
2023-08-11T09:54:58.466Z,42.90
2023-08-11T09:57:36.014Z,42.90
2023-08-11T10:00:13.008Z,42.90
2023-08-11T10:02:58.440Z,43.00
2023-08-11T10:05:36.351Z,43.00
2023-08-11T10:08:13.785Z,42.90
2023-08-11T10:10:50.612Z,40.40
2023-08-11T10:13:27.675Z,42.30
2023-08-11T10:16:03.161Z,42.10
2023-08-11T10:18:37.130Z,42.40
2023-08-11T10:21:10.659Z,42.50
2023-08-11T10:23:44.517Z,41.60
2023-08-11T10:26:17.610Z,42.20
2023-08-11T10:28:51.745Z,41.50
2023-08-11T10:31:26.276Z,41.80
2023-08-11T10:34:00.105Z,41.50
2023-08-11T10:36:35.288Z,42.50
2023-08-11T10:39:09.839Z,42.00
2023-08-11T10:41:46.816Z,41.70
2023-08-11T10:44:20.966Z,41.10
2023-08-11T10:46:54.835Z,39.60
2023-08-11T10:49:42.642Z,40.00
2023-08-11T10:52:15.728Z,40.10
2023-08-11T10:54:52.692Z,41.20
2023-08-11T10:57:25.810Z,40.60
2023-08-11T10:59:59.092Z,41.10
2023-08-11T11:02:33.371Z,39.30
2023-08-11T11:05:09.094Z,39.40
2023-08-11T11:07:43.418Z,39.60
2023-08-11T11:10:19.678Z,39.90
2023-08-11T11:12:54.356Z,40.20
2023-08-11T11:15:34.291Z,38.30
2023-08-11T11:18:08.349Z,39.30
2023-08-11T11:20:41.744Z,39.90
2023-08-11T11:23:14.959Z,39.00
2023-08-11T11:25:48.015Z,39.20
2023-08-11T11:28:20.995Z,39.30
2023-08-11T11:30:54.941Z,38.20
2023-08-11T11:33:28.806Z,38.80
2023-08-11T11:36:02.393Z,39.10
2023-08-11T11:38:35.605Z,39.00
2023-08-11T11:41:13.100Z,38.20
2023-08-11T11:43:48.622Z,37.50
2023-08-11T11:46:22.776Z,38.70
2023-08-11T11:48:56.646Z,38.50
2023-08-11T11:51:31.486Z,39.10
2023-08-11T11:54:05.206Z,38.90
2023-08-11T11:56:41.735Z,38.30
2023-08-11T11:59:17.427Z,37.60
2023-08-11T12:01:50.694Z,39.20
2023-08-11T12:04:27.265Z,39.90
2023-08-11T12:07:00.559Z,39.30
2023-08-11T12:09:50.196Z,38.80
2023-08-11T12:12:26.379Z,37.70
2023-08-11T12:15:07.328Z,37.00
2023-08-11T12:17:40.307Z,37.90
2023-08-11T12:20:13.593Z,37.50
2023-08-11T12:22:46.508Z,36.90
2023-08-11T12:25:19.418Z,37.90
2023-08-11T12:27:55.147Z,39.30
2023-08-11T12:30:27.995Z,39.00
2023-08-11T12:33:03.775Z,39.00
2023-08-11T12:35:36.858Z,38.60
2023-08-11T12:38:13.328Z,37.90
2023-08-11T12:40:47.995Z,38.70
2023-08-11T12:43:20.963Z,38.60
2023-08-11T12:45:53.924Z,38.60
2023-08-11T12:48:26.754Z,38.60
2023-08-11T12:50:59.635Z,37.50
2023-08-11T12:53:32.642Z,38.30
2023-08-11T12:56:06.457Z,38.10
2023-08-11T12:58:40.336Z,37.80
2023-08-11T13:01:16.267Z,38.10
2023-08-11T13:03:52.896Z,38.70
2023-08-11T13:06:25.970Z,38.40
2023-08-11T13:08:59.086Z,39.20
2023-08-11T13:11:32.892Z,39.10
2023-08-11T13:14:06.924Z,38.40
2023-08-11T13:16:40.046Z,38.20
2023-08-11T13:19:14.680Z,38.10
2023-08-11T13:21:47.644Z,37.70
2023-08-11T13:24:21.342Z,37.20
2023-08-11T13:26:54.568Z,37.90
2023-08-11T13:29:27.837Z,36.80
2023-08-11T13:32:01.278Z,37.70
2023-08-11T13:34:34.255Z,37.60
2023-08-11T13:37:07.157Z,37.50
2023-08-11T13:39:40.495Z,36.80
2023-08-11T13:42:13.428Z,36.80
2023-08-11T13:44:46.520Z,35.80
2023-08-11T13:47:20.627Z,35.70
2023-08-11T13:49:53.514Z,35.10
2023-08-11T13:52:26.893Z,35.10
2023-08-11T13:55:01.526Z,35.60
2023-08-11T13:57:34.617Z,36.00
2023-08-11T14:00:09.859Z,36.10
2023-08-11T14:02:43.203Z,35.20
2023-08-11T14:05:16.875Z,35.70
2023-08-11T14:07:51.614Z,34.50
2023-08-11T14:10:25.108Z,35.70
2023-08-11T14:12:57.942Z,35.60
2023-08-11T14:15:32.302Z,35.20
2023-08-11T14:18:07.652Z,34.20
2023-08-11T14:20:40.658Z,33.90
2023-08-11T14:23:13.854Z,34.40
2023-08-11T14:25:47.567Z,35.10
2023-08-11T14:28:20.447Z,35.70
2023-08-11T14:30:55.715Z,36.20
2023-08-11T14:33:29.360Z,36.30
2023-08-11T14:36:11.948Z,36.60
2023-08-11T14:38:45.607Z,36.80
2023-08-11T14:41:18.481Z,38.00
2023-08-11T14:43:51.420Z,36.50
2023-08-11T14:46:24.478Z,37.90
2023-08-11T14:48:57.499Z,38.30
2023-08-11T14:51:30.440Z,38.90
2023-08-11T14:54:04.045Z,38.90
2023-08-11T14:56:37.603Z,39.60
2023-08-11T14:59:10.601Z,39.20
2023-08-11T15:01:43.530Z,39.60
2023-08-11T15:04:16.719Z,38.80
2023-08-11T15:06:49.932Z,38.80
2023-08-11T15:09:23.416Z,38.80
2023-08-11T15:11:58.912Z,38.90
2023-08-11T15:14:31.939Z,37.70
2023-08-11T15:17:04.931Z,37.30
2023-08-11T15:19:37.922Z,38.00
2023-08-11T15:22:11.020Z,38.30
2023-08-11T15:24:44.233Z,38.50
2023-08-11T15:27:19.124Z,38.40
2023-08-11T15:29:52.052Z,38.60
2023-08-11T15:32:25.216Z,38.40
2023-08-11T15:34:58.255Z,38.40
2023-08-11T15:37:31.333Z,38.00
2023-08-11T15:40:06.215Z,38.60
2023-08-11T15:42:39.151Z,38.70
2023-08-11T15:45:12.270Z,38.90
2023-08-11T15:47:45.246Z,39.10
2023-08-11T15:50:18.199Z,39.00
2023-08-11T15:52:51.580Z,39.20
2023-08-11T15:58:10.560Z,39.90
2023-08-11T16:00:44.359Z,40.50
2023-08-11T16:03:17.568Z,40.60
2023-08-11T16:05:50.689Z,40.50
2023-08-11T16:08:23.716Z,40.00
2023-08-11T16:10:56.782Z,40.40
2023-08-11T16:13:29.854Z,41.00
2023-08-11T16:16:03.109Z,41.20
2023-08-11T16:18:36.320Z,42.00
2023-08-11T16:21:09.592Z,41.50
2023-08-11T16:23:42.489Z,41.40
2023-08-11T16:26:15.437Z,41.50
2023-08-11T16:28:48.283Z,42.00
2023-08-11T16:31:21.310Z,42.40
2023-08-11T16:33:54.351Z,42.30
2023-08-11T16:36:28.661Z,42.00
2023-08-11T16:39:02.739Z,42.30
2023-08-11T16:41:35.621Z,43.20
2023-08-11T16:44:10.655Z,42.70
2023-08-11T16:46:43.578Z,43.00
2023-08-11T16:49:16.499Z,43.20
2023-08-11T16:51:49.437Z,42.80
2023-08-11T16:54:22.352Z,43.40
2023-08-11T16:56:55.271Z,43.80
2023-08-11T16:59:28.216Z,44.10
2023-08-11T17:02:02.207Z,43.60
2023-08-11T17:04:35.272Z,43.70
2023-08-11T17:07:08.130Z,44.20
2023-08-11T17:09:41.188Z,44.50
2023-08-11T17:12:14.515Z,44.10
2023-08-11T17:14:47.712Z,43.50
2023-08-11T17:17:20.910Z,44.70
2023-08-11T17:19:53.979Z,44.10
2023-08-11T17:22:27.002Z,44.10
2023-08-11T17:25:00.025Z,44.10
2023-08-11T17:27:34.664Z,44.10
2023-08-11T17:30:09.118Z,44.40
2023-08-11T17:32:43.796Z,44.90
2023-08-11T17:35:16.761Z,45.00
2023-08-11T17:37:49.691Z,46.00
2023-08-11T17:40:22.533Z,46.00
2023-08-11T17:42:55.369Z,46.30
2023-08-11T17:45:28.314Z,46.40
2023-08-11T17:48:02.648Z,46.70
2023-08-11T17:50:36.159Z,46.60
2023-08-11T17:53:09.237Z,46.80
2023-08-11T17:55:42.159Z,47.10
2023-08-11T17:58:15.201Z,47.40
2023-08-11T18:00:48.162Z,48.00
2023-08-11T18:03:22.856Z,47.20
2023-08-11T18:05:55.737Z,48.00
2023-08-11T18:08:28.668Z,47.70
2023-08-11T18:11:01.564Z,47.70
2023-08-11T18:13:35.053Z,48.60
2023-08-11T18:16:07.903Z,48.50
2023-08-11T18:18:40.800Z,48.90
2023-08-11T18:21:20.541Z,49.30
2023-08-11T18:23:55.527Z,49.40
2023-08-11T18:26:30.287Z,49.70
2023-08-11T18:29:03.604Z,49.60
2023-08-11T18:31:36.856Z,50.00
2023-08-11T18:34:09.722Z,50.30
2023-08-11T18:36:42.615Z,50.20
2023-08-11T18:39:15.587Z,51.40
2023-08-11T18:41:48.457Z,51.90
2023-08-11T18:44:22.739Z,54.00
2023-08-11T18:46:55.614Z,54.90
2023-08-11T18:49:28.891Z,54.40
2023-08-11T18:52:02.564Z,55.60
2023-08-11T18:54:35.486Z,56.50
2023-08-11T18:57:13.306Z,57.20
2023-08-11T18:59:46.635Z,57.60
2023-08-11T19:02:19.733Z,57.80
2023-08-11T19:04:56.306Z,58.10
2023-08-11T19:07:29.570Z,58.10
2023-08-11T19:10:04.733Z,58.00
2023-08-11T19:12:37.831Z,58.50
2023-08-11T19:15:11.369Z,58.70
2023-08-11T19:17:44.599Z,59.00
2023-08-11T19:20:17.840Z,59.40
2023-08-11T19:22:50.873Z,59.30
2023-08-11T19:25:23.966Z,59.60
2023-08-11T19:27:57.568Z,59.80
2023-08-11T19:30:30.811Z,60.10
2023-08-11T19:33:04.183Z,60.20
2023-08-11T19:35:37.713Z,60.60
2023-08-11T19:38:11.263Z,61.10
2023-08-11T19:40:51.288Z,61.50
2023-08-11T19:43:25.079Z,61.30
2023-08-11T19:46:01.287Z,61.80
2023-08-11T19:48:34.548Z,62.00
2023-08-11T19:51:08.112Z,62.50
2023-08-11T19:53:46.679Z,62.50
2023-08-11T19:56:19.611Z,63.00
2023-08-11T19:58:52.745Z,63.00
2023-08-11T20:01:28.774Z,65.10
2023-08-11T20:04:01.654Z,65.10
2023-08-11T20:06:34.803Z,65.20
2023-08-11T20:09:15.432Z,65.40
2023-08-11T20:11:48.657Z,65.60
2023-08-11T20:14:26.556Z,65.80
2023-08-11T20:16:59.692Z,66.60
2023-08-11T20:19:35.225Z,66.70
2023-08-11T20:22:08.219Z,66.60
2023-08-11T20:24:41.980Z,67.00
2023-08-11T20:27:15.068Z,67.30
2023-08-11T20:29:49.179Z,68.00
2023-08-11T20:32:22.432Z,68.00
2023-08-11T20:34:55.456Z,67.90
2023-08-11T20:37:28.996Z,68.20
2023-08-11T20:40:11.675Z,68.50
2023-08-11T20:42:44.671Z,68.50
2023-08-11T20:45:19.137Z,68.90
2023-08-11T20:47:54.251Z,69.20
2023-08-11T20:50:27.156Z,69.30
2023-08-11T20:53:00.193Z,69.90
2023-08-11T20:55:34.432Z,69.30
2023-08-11T20:58:07.550Z,69.50
2023-08-11T21:00:40.506Z,69.70
2023-08-11T21:03:13.649Z,69.90
2023-08-11T21:05:46.674Z,69.90
2023-08-11T21:08:24.643Z,70.30
2023-08-11T21:10:57.767Z,70.50
2023-08-11T21:13:30.872Z,70.50
2023-08-11T21:16:06.593Z,70.90
2023-08-11T21:18:40.299Z,71.00
2023-08-11T21:21:14.103Z,71.10
2023-08-11T21:23:47.299Z,71.00
2023-08-11T21:26:20.601Z,71.40
2023-08-11T21:28:56.584Z,71.30
2023-08-11T21:31:30.255Z,71.40
2023-08-11T21:34:10.401Z,71.80
2023-08-11T21:36:43.536Z,71.60
2023-08-11T21:39:16.642Z,72.00
2023-08-11T21:41:49.684Z,73.40
2023-08-11T21:44:22.581Z,73.80
2023-08-11T21:46:55.889Z,73.80
2023-08-11T21:49:31.202Z,73.60
2023-08-11T21:52:06.421Z,73.70
2023-08-11T21:54:39.852Z,73.90
2023-08-11T21:57:12.974Z,74.00
2023-08-11T21:59:46.125Z,74.20
2023-08-11T22:02:23.529Z,74.20
2023-08-11T22:05:07.831Z,74.20
2023-08-11T22:07:44.177Z,74.50
2023-08-11T22:10:17.153Z,74.10
2023-08-11T22:12:50.294Z,74.30
2023-08-11T22:15:23.536Z,74.20
2023-08-11T22:17:56.592Z,74.60
2023-08-11T22:20:30.595Z,74.90
2023-08-11T22:23:03.841Z,74.70
2023-08-11T22:25:36.862Z,75.00
2023-08-11T22:28:10.060Z,75.30
2023-08-11T22:30:43.040Z,75.30
2023-08-11T22:33:15.961Z,75.40
2023-08-11T22:35:49.039Z,75.60
2023-08-11T22:38:21.957Z,75.80
2023-08-11T22:40:54.809Z,75.70
2023-08-11T22:43:30.756Z,75.90
2023-08-11T22:46:04.749Z,76.20
2023-08-11T22:48:37.760Z,76.00
2023-08-11T22:51:10.756Z,76.30
2023-08-11T22:53:43.726Z,76.30
2023-08-11T22:56:16.779Z,76.40
2023-08-11T22:58:49.643Z,76.40
2023-08-11T23:01:22.585Z,76.30
2023-08-11T23:03:55.497Z,76.30
2023-08-11T23:06:28.696Z,76.30
2023-08-11T23:09:01.668Z,76.30
2023-08-11T23:11:35.415Z,76.60
2023-08-11T23:14:08.364Z,76.60
2023-08-11T23:16:41.457Z,76.60
2023-08-11T23:19:14.566Z,76.80
2023-08-11T23:21:47.449Z,76.90
2023-08-11T23:24:20.543Z,76.90
2023-08-11T23:26:53.423Z,77.00
2023-08-11T23:29:26.540Z,76.80
2023-08-11T23:31:59.490Z,76.70
2023-08-11T23:34:32.423Z,77.10
2023-08-11T23:37:05.859Z,77.10
2023-08-11T23:39:40.263Z,76.80
2023-08-11T23:42:13.425Z,77.10
2023-08-11T23:44:46.376Z,77.10
2023-08-11T23:47:19.535Z,77.20
2023-08-11T23:49:52.477Z,77.40
2023-08-11T23:52:25.565Z,77.60
2023-08-11T23:55:05.267Z,77.60
2023-08-11T23:57:39.129Z,77.60
